Time;durP1;ratioP1;P1;durP2;ratioP2;P2;SDS_P1;SDS_P2;PMS_P1;PMS_P2;Temp;Humidity;BMP_temperature;BMP_pressure;BME280_temperature;BME280_humidity;BME280_pressure;Samples;Min_cycle;Max_cycle;Signal;HPM_P1;HPM_P2
2021/11/12 00:03:46;;;;;;;56.95;26.55;;;;;;;8.31;55.70;102227.41;4995275;28;20048;-69
2021/11/12 00:14:23;;;;;;;50.47;24.15;;;;;;;8.41;55.48;102212.59;4997331;28;20037;-68
2021/11/12 00:16:49;;;;;;;60.03;25.42;;;;;;;8.44;55.32;102211.69;4982886;28;20026;-69
2021/11/12 00:19:15;;;;;;;48.95;25.30;;;;;;;8.37;55.69;102213.50;4996929;28;20033;-69
2021/11/12 00:21:43;;;;;;;53.75;25.85;;;;;;;8.36;55.23;102206.56;4993984;28;20141;-69
2021/11/12 00:24:08;;;;;;;50.22;25.65;;;;;;;8.36;55.71;102215.25;4987007;28;20030;-69
2021/11/12 00:26:35;;;;;;;49.15;24.05;;;;;;;8.39;55.89;102210.88;4996822;28;20056;-69
2021/11/12 00:29:01;;;;;;;46.15;23.23;;;;;;;8.42;55.45;102210.84;4993164;28;20231;-69
2021/11/12 00:34:28;;;;;;;54.58;24.85;;;;;;;8.26;55.48;102200.56;4975015;28;20057;-70
2021/11/12 00:39:29;;;;;;;50.00;25.02;;;;;;;8.25;55.88;102192.75;4977419;28;20692;-70
2021/11/12 00:42:06;;;;;;;53.75;25.42;;;;;;;8.17;55.94;102197.19;4958164;28;20035;-69
2021/11/12 00:47:03;;;;;;;50.05;22.73;;;;;;;8.29;55.67;102191.84;4978492;28;20173;-69
2021/11/12 00:49:32;;;;;;;45.13;24.20;;;;;;;8.21;55.94;102196.28;4990518;28;20054;-70
2021/11/12 00:52:11;;;;;;;52.50;24.83;;;;;;;8.20;55.83;102194.53;4978903;28;20063;-69
2021/11/12 00:54:36;;;;;;;51.25;24.25;;;;;;;8.19;56.12;102187.63;4972547;28;20539;-69
2021/11/12 00:57:02;;;;;;;52.30;25.95;;;;;;;7.86;56.60;102187.00;4974256;28;20072;-69
2021/11/12 00:59:28;;;;;;;53.88;24.30;;;;;;;8.24;56.15;102178.88;4973422;28;20137;-70
2021/11/12 01:01:54;;;;;;;47.42;25.30;;;;;;;8.10;56.12;102178.16;4976203;28;20082;-69
2021/11/12 01:04:21;;;;;;;52.47;25.27;;;;;;;8.24;55.58;102175.41;4975776;28;20053;-69
2021/11/12 01:06:48;;;;;;;50.80;24.38;;;;;;;8.22;55.94;102175.41;4980443;28;20022;-68
2021/11/12 01:09:17;;;;;;;50.42;23.30;;;;;;;8.34;55.56;102180.53;4978605;28;20038;-69
2021/11/12 01:11:45;;;;;;;53.78;23.73;;;;;;;8.25;55.80;102180.63;4972694;28;20121;-68
2021/11/12 01:14:15;;;;;;;50.22;24.65;;;;;;;8.21;55.71;102188.47;4973785;28;20286;-69
2021/11/12 01:16:40;;;;;;;45.67;24.00;;;;;;;8.04;56.26;102186.00;4976705;28;20030;-70
2021/11/12 01:19:08;;;;;;;45.38;22.50;;;;;;;8.26;55.53;102181.47;4972478;28;20019;-69
2021/11/12 01:21:34;;;;;;;48.03;22.50;;;;;;;8.23;55.65;102186.72;4974889;28;20042;-70
2021/11/12 01:23:59;;;;;;;50.75;23.15;;;;;;;8.36;55.56;102177.91;4974068;28;20035;-69
2021/11/12 01:26:27;;;;;;;54.42;23.65;;;;;;;8.29;55.08;102177.09;4975461;28;20049;-69
2021/11/12 01:28:53;;;;;;;57.75;23.70;;;;;;;8.34;54.89;102174.47;4970640;28;20043;-69
2021/11/12 01:31:26;;;;;;;46.80;24.00;;;;;;;8.25;54.81;102172.78;4972677;28;20043;-70
2021/11/12 01:33:52;;;;;;;47.30;22.02;;;;;;;8.24;55.29;102167.59;4974712;28;20047;-70
2021/11/12 01:38:44;;;;;;;44.42;22.20;;;;;;;8.20;55.42;102169.34;4974209;28;20047;-69
2021/11/12 01:41:10;;;;;;;52.25;22.33;;;;;;;8.26;55.06;102160.63;4976211;28;20060;-69
2021/11/12 01:43:42;;;;;;;54.45;22.98;;;;;;;8.18;55.06;102163.28;4974943;28;20058;-70
2021/11/12 01:46:31;;;;;;;55.53;22.23;;;;;;;8.13;54.69;102158.13;4969890;28;20165;-69
2021/11/12 01:51:46;;;;;;;47.17;23.02;;;;;;;7.93;54.94;102153.09;4971455;28;20038;-70
2021/11/12 01:57:00;;;;;;;56.40;23.33;;;;;;;7.77;55.38;102140.22;4975433;28;20035;-69
2021/11/12 01:59:26;;;;;;;48.33;23.10;;;;;;;7.63;55.62;102146.41;4976729;28;20046;-69
2021/11/12 02:02:00;;;;;;;36.85;22.58;;;;;;;7.66;55.25;102138.56;4973941;28;20046;-70
2021/11/12 02:04:28;;;;;;;44.35;22.60;;;;;;;7.65;55.36;102130.78;4973831;28;20137;-71
2021/11/12 02:06:56;;;;;;;41.33;22.10;;;;;;;7.68;55.27;102134.22;4972413;28;20095;-70
2021/11/12 02:09:22;;;;;;;42.70;22.80;;;;;;;7.69;55.22;102132.47;4978431;28;20117;-69
2021/11/12 02:12:07;;;;;;;45.60;22.60;;;;;;;7.74;55.48;102122.91;4975970;28;20712;-69
2021/11/12 02:14:34;;;;;;;44.00;23.67;;;;;;;7.78;55.41;102127.22;4976853;28;20030;-69
2021/11/12 02:17:18;;;;;;;45.42;23.02;;;;;;;7.79;55.50;102128.06;4971729;28;20042;-70
2021/11/12 02:20:04;;;;;;;45.25;23.40;;;;;;;7.80;55.17;102124.59;4974225;28;20130;-69
2021/11/12 02:22:33;;;;;;;47.35;22.55;;;;;;;7.78;55.63;102123.72;4989679;28;20039;-70
2021/11/12 02:28:01;;;;;;;48.40;22.88;;;;;;;7.90;55.21;102111.47;4959679;28;20612;-69
2021/11/12 02:30:30;;;;;;;53.63;25.08;;;;;;;7.71;55.72;102100.38;4979332;28;20113;-69
2021/11/12 02:33:11;;;;;;;50.67;23.17;;;;;;;7.73;55.70;102103.84;4984149;28;20074;-69
2021/11/12 02:35:41;;;;;;;38.80;22.17;;;;;;;7.88;55.46;102107.16;4981395;28;20049;-69
2021/11/12 02:38:08;;;;;;;43.60;21.90;;;;;;;7.91;55.56;102112.34;4971458;28;20058;-69
2021/11/12 02:40:35;;;;;;;46.65;22.80;;;;;;;8.04;54.59;102107.88;4978318;28;20069;-69
2021/11/12 02:43:02;;;;;;;55.08;23.73;;;;;;;8.08;54.83;102106.97;4989199;28;20061;-69
2021/11/12 02:45:29;;;;;;;43.13;21.92;;;;;;;8.09;55.00;102100.88;4977684;28;20042;-69
2021/11/12 02:47:56;;;;;;;45.72;20.75;;;;;;;8.07;54.70;102103.53;4974758;28;20038;-69
2021/11/12 02:50:21;;;;;;;44.50;21.38;;;;;;;7.96;54.85;102097.56;4983046;28;20145;-69
2021/11/12 02:52:52;;;;;;;49.42;22.52;;;;;;;8.09;54.94;102091.34;4987035;28;20133;-69
2021/11/12 02:55:18;;;;;;;47.50;22.02;;;;;;;8.08;54.37;102093.97;4991448;28;20187;-69
2021/11/12 02:57:44;;;;;;;44.97;21.65;;;;;;;7.83;55.17;102089.00;4974733;28;20888;-69
2021/11/12 03:00:12;;;;;;;45.97;23.17;;;;;;;7.98;54.95;102093.19;4983700;28;20112;-69
2021/11/12 03:02:38;;;;;;;50.05;22.30;;;;;;;7.98;54.87;102090.59;4973228;28;20043;-70
2021/11/12 03:05:05;;;;;;;47.28;21.90;;;;;;;7.96;54.54;102084.53;4976734;28;20125;-69
2021/11/12 03:07:31;;;;;;;49.22;22.27;;;;;;;7.81;54.62;102076.88;4974370;28;20138;-70
2021/11/12 03:09:56;;;;;;;45.88;22.33;;;;;;;7.87;54.79;102084.59;4974832;28;20185;-68
2021/11/12 03:12:22;;;;;;;50.22;22.00;;;;;;;8.04;54.68;102081.84;4973752;28;20042;-68
2021/11/12 03:14:49;;;;;;;45.67;22.33;;;;;;;7.90;54.80;102079.38;4975472;28;20035;-69
2021/11/12 03:17:15;;;;;;;49.22;23.30;;;;;;;7.94;54.64;102084.53;4974457;28;20053;-69
2021/11/12 03:19:41;;;;;;;48.90;22.88;;;;;;;8.04;54.33;102080.09;4979636;28;20032;-69
2021/11/12 03:22:10;;;;;;;43.78;22.02;;;;;;;7.96;54.58;102081.94;4991292;28;20045;-69
2021/11/12 03:25:11;;;;;;;48.92;23.83;;;;;;;8.06;54.42;102073.13;4977850;28;20045;-69
2021/11/12 03:27:34;;;;;;;42.88;21.73;;;;;;;8.03;54.25;102065.38;4967799;28;20145;-69
2021/11/12 05:26:12;;;;;;;51.90;21.98;;;;;;;7.34;55.50;101948.91;4977591;28;20034;-69
2021/11/12 05:50:19;;;;;;;48.08;23.13;;;;;;;7.56;54.25;101928.78;4978767;28;20084;-70
2021/11/12 05:55:28;;;;;;;45.42;23.02;;;;;;;7.56;54.22;101920.97;4971751;28;20039;-70
2021/11/12 05:57:56;;;;;;;45.47;23.63;;;;;;;7.61;54.68;101913.97;4982218;28;20046;-69
2021/11/12 06:00:22;;;;;;;46.03;23.65;;;;;;;7.47;54.64;101913.25;4969335;28;20047;-69
2021/11/12 06:02:48;;;;;;;52.10;23.98;;;;;;;7.39;55.37;101917.66;4968239;28;20050;-69
2021/11/12 06:05:16;;;;;;;47.72;21.70;;;;;;;7.40;55.04;101912.44;4978979;28;20039;-69
2021/11/12 06:07:42;;;;;;;45.15;21.95;;;;;;;7.26;55.50;101904.75;4968100;28;20302;-69
2021/11/12 06:10:08;;;;;;;51.10;23.63;;;;;;;7.49;54.92;101901.94;4995396;28;20633;-70
2021/11/12 06:12:34;;;;;;;39.78;22.48;;;;;;;7.57;54.92;101907.06;4994239;28;20037;-71
2021/11/12 06:15:00;;;;;;;45.15;22.92;;;;;;;7.49;54.47;101894.13;4995289;28;20045;-69
2021/11/12 06:17:25;;;;;;;45.42;22.67;;;;;;;7.51;54.70;101902.78;4979415;28;20512;-70
2021/11/12 06:19:51;;;;;;;53.45;22.27;;;;;;;7.56;55.05;101901.88;4991928;28;20034;-70
2021/11/12 06:22:16;;;;;;;41.25;21.40;;;;;;;7.48;54.92;101904.53;4978128;28;20881;-70
2021/11/12 06:24:42;;;;;;;53.13;23.48;;;;;;;7.62;54.69;101902.69;4992371;28;20038;-69
2021/11/12 06:27:08;;;;;;;56.05;21.98;;;;;;;7.65;54.73;101892.25;4969907;28;20042;-69
2021/11/12 06:29:34;;;;;;;45.38;21.23;;;;;;;7.49;55.09;101882.88;4989422;28;20053;-69
2021/11/12 06:32:01;;;;;;;46.80;21.38;;;;;;;7.60;54.29;101881.03;4976299;28;20078;-70
2021/11/12 06:34:28;;;;;;;41.78;20.58;;;;;;;7.68;54.61;101876.59;4968101;28;20049;-69
2021/11/12 06:36:54;;;;;;;40.40;20.95;;;;;;;7.76;54.25;101875.63;4962325;28;20062;-68
2021/11/12 06:39:19;;;;;;;44.95;21.05;;;;;;;7.79;54.50;101880.81;4963077;28;20031;-71
2021/11/12 06:49:34;;;;;;;41.40;19.77;;;;;;;7.66;54.65;101878.34;4976517;28;20064;-69
2021/11/12 06:52:00;;;;;;;46.50;22.10;;;;;;;7.69;54.79;101867.03;4978816;28;20133;-70
2021/11/12 06:54:27;;;;;;;43.42;21.58;;;;;;;7.70;54.42;101866.19;4976588;28;20031;-70
2021/11/12 06:56:53;;;;;;;52.17;23.80;;;;;;;7.71;54.36;101865.28;4974975;28;20519;-69
2021/11/12 06:59:19;;;;;;;35.58;19.45;;;;;;;7.87;53.73;101855.53;4971962;28;20472;-69
2021/11/12 07:01:44;;;;;;;45.78;22.52;;;;;;;7.82;53.79;101867.75;4976210;28;20034;-70
2021/11/12 07:04:10;;;;;;;47.08;21.70;;;;;;;7.77;53.89;101869.56;4996156;28;20038;-69
2021/11/12 07:06:36;;;;;;;46.35;21.48;;;;;;;7.62;54.42;101866.25;4981209;28;20530;-70
2021/11/12 07:09:06;;;;;;;35.00;18.73;;;;;;;7.75;54.18;101866.97;4984389;28;20034;-70
2021/11/12 07:11:31;;;;;;;44.58;20.98;;;;;;;7.79;54.26;101865.22;4993915;28;20129;-71
2021/11/12 07:13:57;;;;;;;41.97;22.08;;;;;;;7.74;54.20;101868.72;4977117;28;20157;-70
2021/11/12 07:16:23;;;;;;;36.10;21.05;;;;;;;7.72;54.30;101867.03;4980904;28;20102;-70
2021/11/12 07:18:49;;;;;;;40.53;20.17;;;;;;;7.73;54.35;101869.63;4975508;28;20053;-70
2021/11/12 07:21:14;;;;;;;47.10;21.65;;;;;;;7.74;54.25;101871.31;4982421;28;20512;-70
2021/11/12 07:23:40;;;;;;;40.60;20.85;;;;;;;7.72;54.25;101873.09;4988785;28;20054;-69
2021/11/12 07:26:06;;;;;;;45.60;20.83;;;;;;;7.87;54.20;101882.44;4978636;28;20038;-71
2021/11/12 07:28:31;;;;;;;42.95;20.77;;;;;;;7.79;53.73;101873.88;4975472;28;20117;-70
2021/11/12 07:30:57;;;;;;;43.95;21.77;;;;;;;7.83;53.86;101882.50;4978163;28;20026;-69
2021/11/12 07:33:24;;;;;;;43.38;20.05;;;;;;;7.79;53.73;101873.88;4972883;28;20103;-69
2021/11/12 07:35:58;;;;;;;46.67;21.75;;;;;;;7.76;54.06;101876.53;4982428;28;20044;-70
2021/11/12 07:38:34;;;;;;;39.33;19.77;;;;;;;7.95;53.75;101882.34;4964278;28;20133;-69
2021/11/12 07:41:14;;;;;;;36.85;20.67;;;;;;;7.79;54.28;101878.22;4977047;28;20470;-71
2021/11/12 07:48:56;;;;;;;45.22;21.35;;;;;;;7.77;54.48;101861.75;4989015;28;20042;-69
2021/11/12 07:51:22;;;;;;;47.20;22.05;;;;;;;7.97;53.83;101859.75;4985833;28;20050;-69
2021/11/12 07:53:47;;;;;;;46.60;22.15;;;;;;;7.95;53.91;101858.91;4977071;28;20053;-70
2021/11/12 07:56:14;;;;;;;48.08;22.45;;;;;;;7.94;53.75;101868.47;4979427;28;20042;-69
2021/11/12 07:58:39;;;;;;;46.50;21.38;;;;;;;7.77;54.26;101872.16;4972404;28;20329;-70
2021/11/12 08:01:05;;;;;;;45.67;21.52;;;;;;;8.08;53.37;101870.03;4975686;28;20026;-69
2021/11/12 08:03:31;;;;;;;41.72;22.95;;;;;;;7.51;54.93;101868.09;4963998;28;20042;-69
2021/11/12 08:05:59;;;;;;;46.95;22.17;;;;;;;8.01;53.72;101869.25;4980984;28;20037;-69
2021/11/12 08:08:25;;;;;;;40.97;21.75;;;;;;;8.12;53.67;101871.72;4982417;28;20137;-70
2021/11/12 08:10:58;;;;;;;40.00;20.83;;;;;;;7.89;53.56;101875.50;4996003;28;20433;-69
2021/11/12 08:13:41;;;;;;;44.95;21.48;;;;;;;7.86;53.89;101872.91;4984171;28;20133;-70
2021/11/12 08:16:34;;;;;;;49.53;21.70;;;;;;;8.06;53.66;101870.03;4983687;28;20085;-70
2021/11/12 08:21:37;;;;;;;42.92;23.33;;;;;;;8.12;53.16;101867.34;4997660;28;20030;-70
2021/11/12 08:24:13;;;;;;;44.60;24.30;;;;;;;8.02;53.15;101868.34;5001914;28;20599;-69
2021/11/12 08:29:27;;;;;;;39.73;22.53;;;;;;;8.11;53.58;101859.56;4997275;28;20041;-68
2021/11/12 08:32:12;;;;;;;44.75;23.13;;;;;;;8.13;52.84;101863.00;4979582;28;20125;-69
2021/11/12 08:37:11;;;;;;;46.42;24.20;;;;;;;8.09;53.15;101845.69;4993846;28;20042;-70
2021/11/12 08:42:26;;;;;;;41.03;22.77;;;;;;;8.27;53.31;101849.78;4999944;28;20077;-70
2021/11/12 08:47:41;;;;;;;45.60;24.42;;;;;;;8.27;52.79;101855.00;4994741;28;20530;-70
2021/11/12 08:50:15;;;;;;;46.80;24.75;;;;;;;8.39;52.59;101856.56;4995410;28;20057;-70
2021/11/12 08:52:42;;;;;;;48.50;25.88;;;;;;;8.60;52.70;101857.97;4998879;28;20050;-68
2021/11/12 08:55:08;;;;;;;49.65;26.83;;;;;;;8.70;52.71;101842.16;4985291;28;20096;-70
2021/11/12 08:57:34;;;;;;;53.05;23.77;;;;;;;8.64;52.04;101830.97;4995718;28;20530;-70
2021/11/12 09:00:00;;;;;;;48.67;21.98;;;;;;;8.69;52.33;101834.38;4994392;28;20121;-69
2021/11/12 09:02:27;;;;;;;44.90;23.52;;;;;;;8.76;52.10;101828.19;4979832;28;20054;-71
2021/11/12 09:04:54;;;;;;;46.45;23.45;;;;;;;8.93;52.35;101828.75;4994831;28;20058;-69
2021/11/12 09:07:20;;;;;;;42.10;22.52;;;;;;;9.04;51.88;101830.31;4988805;28;20046;-69
2021/11/12 09:09:47;;;;;;;44.03;23.55;;;;;;;9.07;51.75;101827.66;4987550;28;20034;-69
2021/11/12 09:12:14;;;;;;;47.92;24.77;;;;;;;8.88;51.57;101825.38;4992897;28;20089;-69
2021/11/12 09:14:48;;;;;;;43.80;23.40;;;;;;;8.94;51.64;101816.56;4978561;28;20125;-69
2021/11/12 09:17:16;;;;;;;44.53;23.70;;;;;;;8.91;51.44;101816.63;4994109;28;20046;-71
2021/11/12 09:19:47;;;;;;;45.15;22.67;;;;;;;9.01;51.94;101804.28;4973760;28;20052;-69
2021/11/12 09:22:19;;;;;;;52.22;24.35;;;;;;;9.01;51.16;101801.69;4981946;28;20070;-70
2021/11/12 09:24:45;;;;;;;48.00;23.98;;;;;;;9.02;51.77;101796.44;4982431;28;20045;-70
2021/11/12 09:27:12;;;;;;;41.65;23.27;;;;;;;9.04;51.43;101792.06;4974352;28;20222;-70
2021/11/12 09:29:38;;;;;;;44.95;23.17;;;;;;;9.22;51.10;101787.38;4972515;28;20150;-70
2021/11/12 09:32:05;;;;;;;49.03;24.98;;;;;;;9.10;51.49;101778.06;4981813;28;20045;-69
2021/11/12 09:34:35;;;;;;;40.20;23.77;;;;;;;9.32;50.76;101771.53;4978325;28;20038;-69
2021/11/12 09:37:01;;;;;;;54.17;25.60;;;;;;;9.18;50.96;101765.72;4974163;28;20129;-70
2021/11/12 09:39:28;;;;;;;47.50;25.38;;;;;;;9.31;50.58;101764.56;4971905;28;20043;-69
2021/11/12 09:41:54;;;;;;;49.88;24.73;;;;;;;8.69;52.60;101779.63;4975727;28;20053;-70
2021/11/12 09:44:20;;;;;;;46.78;26.00;;;;;;;8.94;51.81;101780.06;4974291;28;20097;-71
2021/11/12 09:46:48;;;;;;;52.60;25.63;;;;;;;9.26;51.69;101792.50;4972451;28;20404;-69
2021/11/12 09:49:14;;;;;;;54.70;25.65;;;;;;;9.42;50.60;101789.59;4972913;28;20084;-69
2021/11/12 09:51:40;;;;;;;50.45;23.38;;;;;;;9.40;50.81;101789.63;4972043;28;20118;-70
2021/11/12 09:54:06;;;;;;;50.10;25.65;;;;;;;9.00;52.02;101784.31;4979866;28;20035;-69
2021/11/12 09:56:33;;;;;;;49.35;24.80;;;;;;;9.42;50.48;101773.94;4960170;28;20031;-71
2021/11/12 09:58:58;;;;;;;47.67;23.73;;;;;;;9.55;51.16;101767.56;4991188;28;20105;-70
2021/11/12 10:01:29;;;;;;;42.33;22.83;;;;;;;9.52;50.49;101758.06;4971501;28;20532;-70
2021/11/12 10:04:03;;;;;;;48.83;26.17;;;;;;;9.65;50.47;101756.03;4990198;28;20055;-70
2021/11/12 10:06:28;;;;;;;47.95;24.63;;;;;;;9.94;50.81;101750.16;4974981;28;20027;-70
2021/11/12 10:08:55;;;;;;;47.13;22.63;;;;;;;10.17;49.95;101762.69;4979238;28;20105;-69
2021/11/12 10:11:23;;;;;;;46.40;23.90;;;;;;;10.16;49.37;101760.13;4968176;28;20123;-69
2021/11/12 10:13:58;;;;;;;50.90;23.35;;;;;;;10.38;48.74;101744.78;4973618;28;20334;-69
2021/11/12 10:16:34;;;;;;;46.65;22.73;;;;;;;10.68;48.37;101747.47;4985623;28;20038;-69
2021/11/12 10:19:10;;;;;;;42.97;22.98;;;;;;;10.71;47.71;101737.81;4968679;28;20046;-68
2021/11/12 10:21:46;;;;;;;42.50;21.23;;;;;;;10.38;48.17;101734.31;4971312;28;20037;-70
2021/11/12 10:24:19;;;;;;;48.63;22.15;;;;;;;9.99;48.75;101742.22;4974189;28;20117;-70
2021/11/12 10:26:49;;;;;;;41.83;21.55;;;;;;;10.14;49.08;101739.25;4967178;28;20455;-69
2021/11/12 10:29:20;;;;;;;42.33;22.58;;;;;;;10.19;48.86;101745.25;4967591;28;20058;-70
2021/11/12 10:31:51;;;;;;;43.22;21.48;;;;;;;10.13;48.43;101734.94;4978414;28;20045;-70
2021/11/12 10:34:20;;;;;;;45.90;22.58;;;;;;;9.94;49.20;101736.25;4970393;28;20388;-70
2021/11/12 10:36:50;;;;;;;49.75;22.13;;;;;;;10.00;48.82;101730.91;4973769;28;20073;-70
2021/11/12 10:39:23;;;;;;;42.45;21.23;;;;;;;9.93;49.08;101724.09;4973911;28;20038;-69
2021/11/12 10:41:50;;;;;;;38.17;19.98;;;;;;;9.32;50.49;101711.53;4952625;28;20038;-69
2021/11/12 10:44:15;;;;;;;40.30;20.15;;;;;;;9.71;50.12;101710.66;4955712;28;20120;-69
2021/11/12 10:46:43;;;;;;;45.83;21.65;;;;;;;9.42;50.53;101708.72;4958754;28;20115;-69
2021/11/12 10:49:47;;;;;;;48.10;21.27;;;;;;;9.27;51.29;101700.31;4957632;28;20089;-69
2021/11/12 10:52:20;;;;;;;44.60;20.17;;;;;;;9.62;50.04;101690.84;4917046;29;20549;-69
2021/11/12 10:54:49;;;;;;;40.65;19.45;;;;;;;9.50;50.28;101691.09;4953726;28;20579;-69
2021/11/12 10:57:16;;;;;;;43.20;19.42;;;;;;;9.34;51.01;101686.25;4956206;28;20074;-69
2021/11/12 10:59:55;;;;;;;36.22;17.55;;;;;;;9.61;50.03;101678.69;4974408;28;20096;-70
2021/11/12 11:02:29;;;;;;;41.30;19.08;;;;;;;9.77;49.81;101668.75;4962500;28;20037;-70
2021/11/12 11:05:05;;;;;;;42.85;19.17;;;;;;;10.01;48.85;101672.53;4995116;28;20061;-70
2021/11/12 11:07:31;;;;;;;38.55;18.20;;;;;;;10.05;49.10;101663.72;4993224;28;20568;-69
2021/11/12 11:09:59;;;;;;;44.00;18.38;;;;;;;10.18;48.68;101654.69;4996396;28;20105;-70
2021/11/12 11:12:36;;;;;;;42.25;19.17;;;;;;;10.19;48.63;101647.69;4993736;28;20058;-70
2021/11/12 11:15:20;;;;;;;36.35;16.52;;;;;;;10.25;48.14;101649.31;4976436;28;20044;-70
2021/11/12 11:17:49;;;;;;;36.70;16.75;;;;;;;9.93;48.73;101651.00;4980306;28;20041;-69
2021/11/12 11:20:20;;;;;;;31.27;14.40;;;;;;;10.11;48.34;101642.69;4996256;28;20037;-70
2021/11/12 11:22:58;;;;;;;31.27;14.37;;;;;;;9.97;48.25;101640.44;4995284;28;20458;-71
2021/11/12 11:25:25;;;;;;;29.05;12.32;;;;;;;9.80;48.07;101638.22;4980137;28;20029;-70
2021/11/12 11:27:59;;;;;;;27.23;13.45;;;;;;;9.68;48.88;101622.84;4996067;28;20042;-70
2021/11/12 11:30:27;;;;;;;31.65;12.65;;;;;;;10.11;47.96;101616.56;4982542;28;20057;-69
2021/11/12 11:32:52;;;;;;;27.83;12.98;;;;;;;9.94;48.08;101608.31;4997819;28;20567;-70
2021/11/12 11:35:20;;;;;;;29.45;13.15;;;;;;;10.17;48.04;101605.09;4998040;28;20141;-70
2021/11/12 11:37:49;;;;;;;25.65;12.20;;;;;;;10.09;47.56;101597.47;4966890;28;20049;-70
2021/11/12 11:40:15;;;;;;;24.10;10.82;;;;;;;10.04;47.44;101594.13;4996321;28;20738;-70
2021/11/12 11:42:43;;;;;;;18.95;9.35;;;;;;;9.52;48.30;101593.66;4992854;28;20546;-70
2021/11/12 11:45:18;;;;;;;16.00;8.32;;;;;;;10.26;46.94;101583.06;4994037;28;20038;-70
2021/11/12 11:47:45;;;;;;;18.98;9.02;;;;;;;9.71;47.71;101574.91;4995846;28;20038;-70
2021/11/12 11:50:22;;;;;;;18.20;9.23;;;;;;;10.20;47.16;101571.91;4975141;28;20045;-70
2021/11/12 11:52:48;;;;;;;16.05;9.38;;;;;;;10.60;45.70;101573.41;4982087;28;20072;-70
2021/11/12 11:55:30;;;;;;;16.15;8.80;;;;;;;10.39;46.23;101576.59;4994914;28;20045;-69
2021/11/12 11:58:16;;;;;;;15.00;8.57;;;;;;;9.86;47.14;101569.34;5002850;28;20056;-69
2021/11/12 12:00:41;;;;;;;14.18;7.65;;;;;;;9.98;46.80;101571.63;4991358;28;20037;-69
2021/11/12 12:03:24;;;;;;;13.95;8.48;;;;;;;9.67;47.13;101573.28;5006673;28;20096;-69
2021/11/12 12:06:10;;;;;;;12.95;7.63;;;;;;;9.84;46.93;101575.50;5006833;28;20042;-69
2021/11/12 12:08:51;;;;;;;19.55;9.82;;;;;;;9.95;46.92;101569.09;4978562;28;20052;-70
2021/11/12 12:11:23;;;;;;;13.10;8.25;;;;;;;9.73;46.66;101560.06;4993832;28;20030;-69
2021/11/12 12:14:25;;;;;;;14.40;8.82;;;;;;;9.95;45.97;101536.91;4991613;28;20064;-69
2021/11/12 12:17:06;;;;;;;16.55;9.80;;;;;;;9.53;47.22;101530.09;4979227;28;20050;-70
2021/11/12 12:31:37;;;;;;;15.48;10.85;;;;;;;9.46;45.40;101519.88;4988008;28;20119;-69
2021/11/12 12:34:37;;;;;;;18.85;11.07;;;;;;;9.92;44.74;101522.19;4984817;28;20170;-70
2021/11/12 12:37:46;;;;;;;20.23;11.45;;;;;;;9.78;45.01;101521.66;4989691;28;20052;-69
2021/11/12 13:25:44;;;;;;;18.58;11.52;;;;;;;9.44;44.44;101405.09;4991303;28;20034;-69
2021/11/12 13:28:17;;;;;;;22.25;12.40;;;;;;;9.40;45.05;101404.31;4991398;28;20046;-69
2021/11/12 13:30:46;;;;;;;25.85;13.57;;;;;;;8.41;47.42;101393.72;4992822;28;20061;-69
2021/11/12 13:33:33;;;;;;;19.98;11.27;;;;;;;8.94;45.75;101389.00;4997414;28;20116;-69
2021/11/12 13:36:05;;;;;;;21.90;11.43;;;;;;;8.72;45.93;101378.25;4989952;28;20065;-68
2021/11/12 13:38:45;;;;;;;23.67;12.63;;;;;;;8.74;46.26;101371.28;4987667;28;20058;-69
2021/11/12 13:41:15;;;;;;;23.63;12.25;;;;;;;8.19;46.96;101362.09;4991641;28;20034;-68
2021/11/12 13:43:48;;;;;;;21.45;11.98;;;;;;;8.39;47.27;101362.50;4990844;28;20074;-68
2021/11/12 13:46:15;;;;;;;21.88;13.05;;;;;;;8.40;46.91;101353.78;4990343;28;20026;-69
2021/11/12 13:48:45;;;;;;;24.30;12.50;;;;;;;8.48;47.01;101367.47;4982899;28;20483;-68
2021/11/12 13:51:11;;;;;;;19.95;11.82;;;;;;;8.61;46.62;101364.59;4994459;28;20041;-69
2021/11/12 13:53:37;;;;;;;21.83;12.15;;;;;;;8.69;46.20;101368.72;4974791;28;20042;-69
2021/11/12 13:56:07;;;;;;;23.55;12.70;;;;;;;8.47;46.80;101367.50;4989987;28;20046;-69
2021/11/12 13:58:33;;;;;;;22.55;11.68;;;;;;;8.46;46.57;101368.41;4976813;28;20413;-69
2021/11/12 14:00:59;;;;;;;22.67;11.68;;;;;;;8.32;46.77;101359.16;4995652;28;20026;-69
2021/11/12 14:03:33;;;;;;;24.05;12.20;;;;;;;8.10;47.42;101369.19;4982111;28;20620;-69
2021/11/12 14:06:09;;;;;;;20.50;11.65;;;;;;;8.31;47.00;101361.78;4995078;28;21001;-70
2021/11/12 14:08:46;;;;;;;21.73;10.88;;;;;;;8.38;46.71;101362.50;4991877;28;20038;-69
2021/11/12 14:11:27;;;;;;;22.00;11.82;;;;;;;8.06;47.31;101349.31;4990415;28;20137;-68
2021/11/12 14:14:01;;;;;;;24.35;10.48;;;;;;;7.86;47.41;101338.50;4977714;28;20057;-68
2021/11/12 14:16:36;;;;;;;24.95;11.07;;;;;;;7.64;47.84;101328.53;4988765;28;20045;-69
2021/11/12 14:21:43;;;;;;;20.83;10.90;;;;;;;7.74;48.26;101339.63;4995016;28;20033;-70
2021/11/12 14:40:14;;;;;;;19.45;10.43;;;;;;;7.86;48.20;101323.72;4992960;28;20042;-69
2021/11/12 14:45:40;;;;;;;21.33;10.80;;;;;;;7.45;49.04;101317.63;4952196;28;20092;-69
2021/11/12 14:50:58;;;;;;;16.90;9.65;;;;;;;7.42;48.84;101306.41;4996107;28;20455;-69
2021/11/12 14:53:39;;;;;;;17.15;8.73;;;;;;;7.50;48.42;101307.13;4981532;28;20089;-69
2021/11/12 14:58:45;;;;;;;17.85;7.97;;;;;;;7.41;48.51;101294.28;4990821;28;20082;-68
2021/11/12 15:01:13;;;;;;;13.73;8.10;;;;;;;7.22;49.07;101294.66;4990996;28;20081;-70
2021/11/12 15:03:42;;;;;;;14.57;8.30;;;;;;;7.53;48.69;101299.25;4992582;28;20773;-71
2021/11/12 15:06:09;;;;;;;15.65;8.63;;;;;;;7.02;49.56;101291.56;4983083;28;20054;-69
2021/11/12 15:08:42;;;;;;;16.25;8.48;;;;;;;7.48;48.52;101291.53;4989282;28;20046;-72
2021/11/12 15:11:12;;;;;;;14.82;8.93;;;;;;;7.31;48.83;101291.88;4989993;28;20060;-70
2021/11/12 15:13:40;;;;;;;15.65;8.48;;;;;;;7.44;48.74;101299.44;4995236;28;20058;-69
2021/11/12 15:16:19;;;;;;;15.75;9.45;;;;;;;7.34;49.04;101288.38;4991025;28;20019;-69
2021/11/12 15:18:45;;;;;;;16.33;8.20;;;;;;;7.18;49.10;101282.59;4977332;28;20042;-69
2021/11/12 15:21:16;;;;;;;15.00;8.23;;;;;;;7.28;48.97;101278.91;4980076;28;20096;-68
2021/11/12 15:28:55;;;;;;;13.60;6.97;;;;;;;7.15;49.44;101261.84;4992902;28;19929;-70
2021/11/12 15:31:35;;;;;;;13.70;7.68;;;;;;;6.88;49.94;101258.03;4990191;28;20034;-69
2021/11/12 15:34:04;;;;;;;15.65;8.77;;;;;;;7.16;49.56;101253.19;4973703;28;20057;-68
2021/11/12 15:36:33;;;;;;;15.05;8.57;;;;;;;7.22;49.51;101260.88;4976354;28;20093;-68
2021/11/12 15:39:28;;;;;;;15.88;9.05;;;;;;;7.21;49.17;101261.75;4976462;28;20049;-68
2021/11/12 15:42:09;;;;;;;16.25;10.18;;;;;;;7.06;49.60;101260.28;4977701;28;20049;-70
2021/11/12 15:44:36;;;;;;;16.45;10.10;;;;;;;7.05;49.77;101257.72;4992868;28;20034;-69
2021/11/12 15:47:05;;;;;;;14.55;9.15;;;;;;;7.23;49.38;101257.38;4980130;28;20042;-69
2021/11/12 15:49:31;;;;;;;12.25;8.65;;;;;;;7.12;49.63;101260.16;4990309;28;20034;-69
2021/11/12 15:52:12;;;;;;;20.60;10.80;;;;;;;7.03;50.27;101255.16;4981768;28;20045;-70
2021/11/12 16:15:48;;;;;;;16.52;9.77;;;;;;;7.07;50.28;101214.38;4989150;28;20455;-68
2021/11/12 16:26:11;;;;;;;16.58;9.23;;;;;;;7.01;50.31;101222.28;4989714;28;20048;-69
2021/11/12 16:28:54;;;;;;;13.90;9.38;;;;;;;6.91;50.51;101222.47;4985646;28;20065;-69
2021/11/12 16:31:20;;;;;;;15.23;9.50;;;;;;;7.14;49.76;101215.97;4973927;28;20042;-70
2021/11/12 16:33:45;;;;;;;16.73;8.95;;;;;;;7.07;50.16;101214.38;4978117;28;20050;-68
2021/11/12 16:36:11;;;;;;;15.60;9.90;;;;;;;7.04;49.98;101209.22;4975159;28;20070;-69
2021/11/12 16:38:37;;;;;;;19.17;10.15;;;;;;;7.02;50.32;101208.38;4987264;28;20124;-68
2021/11/12 16:41:15;;;;;;;16.55;10.55;;;;;;;6.84;50.95;101204.41;4993335;28;20042;-70
2021/11/12 17:02:01;;;;;;;16.90;10.50;;;;;;;6.48;51.53;101179.13;4989013;28;20072;-69
2021/11/12 17:07:13;;;;;;;17.85;9.15;;;;;;;6.90;50.13;101176.56;4989268;28;20046;-69